ADDS METAR Data INFO
IDs: Format: Raw Decoded Include TAF

Data at: 1230 UTC 25 Jul 2017

KJXI 251215Z AUTO 00000KT 7SM CLR 24/24 A3010 RMK AO2 T02400235
KJXI 251155Z AUTO 00000KT 7SM SCT090 24/24 A3009 RMK AO2 70026 T02400235 10243 20233
KJXI 251135Z AUTO 18003KT 7SM SCT090 24/24 A3009 RMK AO2 T02400235
KJXI 251115Z AUTO 00000KT 10SM SCT100 24/24 A3008 RMK AO2 T02410235
KJXI 251055Z AUTO 00000KT 7SM SCT100 24/24 A3007 RMK AO2 T02410236
KJXI 251035Z AUTO 18004KT 7SM SCT100 24/24 A3007 RMK AO2 T02400235
KJXI 251015Z AUTO 18003KT 10SM BKN090 24/24 A3006 RMK AO2 T02410235
KJXI 250955Z AUTO 00000KT 7SM OVC090 24/24 A3006 RMK AO2 T02400236
KJXI 250935Z AUTO 00000KT 7SM TS SCT090 24/24 A3005 RMK AO2 LTG DSNT NW T02380235
KJXI 250915Z AUTO 00000KT 7SM CLR 24/24 A3004 RMK AO2 T02390235
KJXI 250855Z AUTO 00000KT 7SM TS CLR 23/23 A3004 RMK AO2 LTG DSNT NW T02340229
KJXI 250835Z AUTO 00000KT 10SM CLR 24/23 A3003 RMK AO2 T02410234
KJXI 250815Z AUTO 00000KT 10SM TS CLR 24/23 A3003 RMK AO2 LTG DSNT NW T02410232
KJXI 250755Z AUTO 00000KT 10SM CLR 24/23 A3002 RMK AO2 T02430231
KJXI 250735Z AUTO 00000KT 10SM CLR 24/23 A3003 RMK AO2 T02420230
KJXI 250715Z AUTO 00000KT 10SM TS CLR 24/23 A3003 RMK AO2 LTG DSNT NW T02420227
KJXI 250655Z AUTO 00000KT 10SM CLR 24/23 A3003 RMK AO2 T02430225
KJXI 250635Z AUTO 00000KT 10SM CLR 24/23 A3003 RMK AO2 T02430225
KJXI 250615Z AUTO 00000KT 10SM CLR 24/23 A3003 RMK AO2 T02400230
KJXI 250555Z AUTO 00000KT 10SM CLR 24/23 A3003 RMK AO2 T02410227 10282 20241 403250210
KJXI 250535Z AUTO 00000KT 10SM CLR 25/23 A3003 RMK AO2 T02460226
KJXI 250515Z AUTO 00000KT 10SM CLR 24/24 A3003 RMK AO2 T02440236
KJXI 250455Z AUTO 00000KT 10SM CLR 25/24 A3002 RMK AO2 T02510235
KJXI 250435Z AUTO 00000KT 10SM CLR 25/24 A3002 RMK AO2 T02520237
KJXI 250415Z AUTO 00000KT 10SM CLR 25/24 A3002 RMK AO2 T02530240
KJXI 250355Z AUTO 00000KT 10SM CLR 26/25 A3002 RMK AO2 T02550246
KJXI 250335Z AUTO 00000KT 10SM CLR 26/25 A3001 RMK AO2 T02560248
KJXI 250315Z AUTO 00000KT 10SM CLR 26/24 A3000 RMK AO2 T02560242
KJXI 250255Z AUTO 00000KT 10SM TS CLR 26/24 A3000 RMK AO2 LTG DSNT NW T02580244
KJXI 250235Z AUTO 00000KT 10SM CLR 26/25 A3000 RMK AO2 T02580250
KJXI 250215Z AUTO 00000KT 10SM CLR 27/25 A2999 RMK AO2 T02650249
KJXI 250155Z AUTO 00000KT 10SM CLR 27/25 A2998 RMK AO2 T02690251
KJXI 250135Z AUTO 00000KT 10SM TS CLR 27/26 A2998 RMK AO2 LTG DSNT NW T02670256
KJXI 250115Z AUTO 00000KT 10SM CLR 27/26 A2997 RMK AO2 T02670257
KJXI 250055Z AUTO 00000KT 10SM CLR 28/25 A2996 RMK AO2 T02820254
KJXI 250035Z AUTO 00000KT 10SM TS CLR 28/25 A2996 RMK AO2 LTG DSNT NW T02810250
KJXI 250015Z AUTO 00000KT 10SM CLR 28/25 A2995 RMK AO2 T02750251
KJXI 242355Z AUTO 00000KT 10SM SCT029 SCT037 SCT046 28/25 A2995 RMK AO2 P0001 60026 T02750246 10325 20245
KJXI 242335Z AUTO 19003KT 10SM -RA SCT029 SCT042 BKN050 27/24 A2995 RMK AO2 P0001 T02660242
KJXI 242315Z AUTO 00000KT 10SM CLR 26/23 A2996 RMK AO2 LTG DSNT SE T02600231
KJXI 242255Z AUTO 00000KT 10SM SCT025 SCT033 SCT047 25/23 A2996 RMK AO2 LTG DSNT SE P0011 T02530234
KJXI 242235Z AUTO 00000KT 5SM -VCTSRA SCT047 BKN055 OVC070 25/23 A2995 RMK AO2 LTG DSNT N THRU SE P0011 T02450229
KJXI 242215Z AUTO 25005KT 7SM TSRA SCT010 BKN045 OVC060 25/23 A2997 RMK AO2 LTG DSNT ALQS P0001 T02480229
KJXI 242155Z AUTO 34011G16KT 3SM +RA SCT012 SCT026 OVC036 26/22 A2997 RMK AO2 LTG DSNT NW THRU NE P0014 T02570221
KJXI 242135Z AUTO 33014G19KT 10SM TS SCT032 BKN038 OVC050 28/22 A2996 RMK AO2 LTG DSNT NW THRU NE T02820224
KJXI 242115Z AUTO 16004KT 10SM VCTS SCT036 32/23 A2996 RMK AO2 LTG DSNT N AND NW T03180230
KJXI 242055Z AUTO 16006KT 10SM VCTS SCT034 SCT041 SCT049 32/23 A2996 RMK AO2 LTG DSNT N AND NW T03230230
KJXI 242035Z AUTO 17005KT 10SM BKN037 BKN050 BKN070 32/23 A2996 RMK AO2 LTG DSNT N AND NW T03240233
KJXI 242015Z AUTO 00000KT 10SM SCT034 SCT039 BKN055 32/23 A2997 RMK AO2 LTG DSNT N T03150233
KJXI 241955Z AUTO 00000KT 10SM SCT032 32/23 A2998 RMK AO2 T03150229
KJXI 241935Z AUTO 23003KT 10SM BKN028 31/23 A2998 RMK AO2 T03090229
KJXI 241915Z AUTO 17003KT 10SM BKN028 31/23 A2998 RMK AO2 T03090234
KJXI 241855Z AUTO 20006KT 10SM SCT026 SCT075 30/23 A2999 RMK AO2 T03020234
KJXI 241835Z AUTO 19006KT 10SM SCT025 SCT065 29/23 A3000 RMK AO2 LTG DSNT SW T02940228
KJXI 241815Z AUTO 20006KT 10SM SCT025 OVC065 30/23 A3000 RMK AO2 T02950228
KJXI 241755Z AUTO 21005KT 10SM BKN065 29/22 A3000 RMK AO2 T02850224 10295 20210
KJXI 241735Z AUTO 22006KT 10SM CLR 28/22 A3001 RMK AO2 T02790220
KJXI 241715Z AUTO 17009KT 10SM SCT070 28/22 A3001 RMK AO2 T02780217
KJXI 241655Z AUTO 19008KT 10SM BKN070 28/21 A3002 RMK AO2 T02750214
KJXI 241635Z AUTO 17008KT 10SM BKN070 27/21 A3003 RMK AO2 T02690210
KJXI 241615Z AUTO 20011G15KT 10SM CLR 27/21 A3003 RMK AO2 T02660209
KJXI 241555Z AUTO 17009G14KT 10SM BKN044 BKN050 27/21 A3003 RMK AO2 LTG DSNT S T02660210
KJXI 241535Z AUTO 18008G17KT 10SM SCT015 SCT020 BKN044 27/21 A3003 RMK AO2 T02670212
KJXI 241515Z AUTO 16009G14KT 10SM BKN013 OVC020 27/23 A3002 RMK AO2 LTG DSNT S T02690225
KJXI 241455Z AUTO 16005KT 10SM SCT013 BKN043 26/22 A3002 RMK AO2 T02640223
KJXI 241435Z AUTO 16006KT 10SM CLR 25/21 A3001 RMK AO2 LTG DSNT S T02500214
KJXI 241415Z AUTO 00000KT 10SM CLR 24/21 A3000 RMK AO2 LTG DSNT S T02380210
KJXI 241355Z AUTO 13004KT 10SM CLR 23/21 A3000 RMK AO2 LTG DSNT S T02300209
KJXI 241335Z AUTO 12005KT 10SM CLR 23/21 A2999 RMK AO2 LTG DSNT S T02290209
KJXI 241315Z AUTO 11005KT 10SM CLR 23/21 A2998 RMK AO2 LTG DSNT S T02280209
KJXI 241255Z AUTO 00000KT 10SM CLR 23/21 A2997 RMK AO2 LTG DSNT S T02260206
KJXI 241235Z AUTO 00000KT 10SM CLR 22/21 A2997 RMK AO2 LTG DSNT S T02200205
KJXI 241215Z AUTO 00000KT 10SM CLR 22/20 A2995 RMK AO2 LTG DSNT S T02150203
KJXI 241155Z AUTO 22004KT 10SM CLR 21/20 A2995 RMK AO2 LTG DSNT S T02100201 10232 20210
KJXI 241135Z AUTO 21005KT 10SM CLR 21/20 A2994 RMK AO2 LTG DSNT SE AND S T02100201
KJXI 241115Z AUTO 00000KT 10SM CLR 21/20 A2995 RMK AO2 T02130201
KJXI 241055Z AUTO 00000KT 10SM CLR 21/20 A2994 RMK AO2 LTG DSNT SE AND S T02120201
KJXI 241035Z AUTO 24003KT 10SM SCT080 SCT110 21/20 A2994 RMK AO2 LTG DSNT SE AND S T02110200
KJXI 241015Z AUTO 00000KT 10SM BKN070 BKN110 22/20 A2993 RMK AO2 LTG DSNT SE T02160200
KJXI 240955Z AUTO 00000KT 10SM SCT070 SCT095 BKN120 22/20 A2994 RMK AO2 LTG DSNT SE T02170200
KJXI 240935Z AUTO 00000KT 10SM TS SCT080 SCT095 SCT120 22/20 A2993 RMK AO2 LTG DSNT SE S AND NW T02170200
KJXI 240915Z AUTO 00000KT 10SM OVC080 22/20 A2994 RMK AO2 LTG DSNT SE T02170201
KJXI 240855Z AUTO 34003KT 10SM TS BKN080 22/20 A2994 RMK AO2 LTG DSNT S AND NW T02160200
KJXI 240835Z AUTO 33003KT 10SM SCT080 22/20 A2995 RMK AO2 LTG DSNT S T02160198
KJXI 240815Z AUTO 00000KT 10SM CLR 22/20 A2994 RMK AO2 LTG DSNT S T02200197
KJXI 240755Z AUTO 19003KT 10SM CLR 22/20 A2993 RMK AO2 T02210197
KJXI 240735Z AUTO 22003KT 10SM CLR 22/20 A2992 RMK AO2 T02230195
KJXI 240715Z AUTO 00000KT 10SM CLR 22/19 A2991 RMK AO2 LTG DSNT S T02230193
KJXI 240655Z AUTO 00000KT 10SM CLR 23/19 A2990 RMK AO2 T02270191
KJXI 240635Z AUTO 20003KT 10SM CLR 23/19 A2990 RMK AO2 T02300191
KJXI 240615Z AUTO 00000KT 10SM CLR 23/19 A2990 RMK AO2 T02300191
KJXI 240555Z AUTO 23004KT 10SM CLR 23/19 A2991 RMK AO2 T02300191 10266 20230 403470230
KJXI 240535Z AUTO 00000KT 10SM CLR 24/19 A2991 RMK AO2 T02350193
KJXI 240515Z AUTO 31004KT 10SM CLR 24/20 A2992 RMK AO2 T02410195
KJXI 240455Z AUTO 28004KT 10SM CLR 25/20 A2993 RMK AO2 T02460202
KJXI 240435Z AUTO 00000KT 10SM CLR 25/21 A2993 RMK AO2 T02450209
KJXI 240415Z AUTO 00000KT 10SM SCT060 SCT085 SCT120 25/21 A2991 RMK AO2 LTG DSNT NW T02500208
KJXI 240355Z AUTO 00000KT 10SM SCT060 SCT070 BKN085 25/21 A2993 RMK AO2 LTG DSNT NW T02500208
KJXI 240335Z AUTO 00000KT 10SM CLR 24/21 A2991 RMK AO2 LTG DSNT N T02420211
KJXI 240315Z AUTO 15004KT 10SM TS CLR 25/21 A2991 RMK AO2 LTG DSNT N AND NW T02450211
KJXI 240255Z AUTO 22003KT 10SM CLR 25/21 A2990 RMK AO2 T02460212
KJXI 240235Z AUTO 19004KT 10SM CLR 25/21 A2990 RMK AO2 LTG DSNT N T02480213
KJXI 240215Z AUTO 16006KT 10SM CLR 25/22 A2988 RMK AO2 T02500215
KJXI 240155Z AUTO 16005KT 10SM TS CLR 26/22 A2990 RMK AO2 LTG DSNT NW T02560216
KJXI 240135Z AUTO 17004KT 10SM VCTS CLR 26/22 A2991 RMK AO2 T02590215
KJXI 240115Z AUTO 16006KT 10SM TS CLR 26/21 A2990 RMK AO2 LTG DSNT NW T02620214
KJXI 240055Z AUTO 17008KT 10SM CLR 27/21 A2989 RMK AO2 LTG DSNT SE AND S T02650213
KJXI 240035Z AUTO 16006KT 10SM CLR 27/22 A2988 RMK AO2 LTG DSNT S T02660215